Time;durP1;ratioP1;P1;durP2;ratioP2;P2;SDS_P1;SDS_P2;PMS_P1;PMS_P2;Temp;Humidity;BMP_temperature;BMP_pressure;BME280_temperature;BME280_humidity;BME280_pressure;Samples;Min_cycle;Max_cycle;Signal;HPM_P1;HPM_P2
2021/07/10 00:01:15;;;;;;;17.20;15.40;;;16.20;99.90;;;;;;4976238;28;20213;-64
2021/07/10 00:03:42;;;;;;;18.13;15.53;;;16.10;99.90;;;;;;4975966;28;20224;-63
2021/07/10 00:06:09;;;;;;;20.27;16.07;;;16.20;99.90;;;;;;4976373;28;20263;-63
2021/07/10 00:08:36;;;;;;;17.70;14.77;;;16.10;99.90;;;;;;4976232;28;20208;-63
2021/07/10 00:11:05;;;;;;;20.93;15.87;;;16.10;99.90;;;;;;4976256;28;20267;-63
2021/07/10 00:13:33;;;;;;;23.40;16.03;;;16.00;1.00;;;;;;4975872;28;20292;-63
2021/07/10 00:16:00;;;;;;;22.47;16.43;;;16.00;1.00;;;;;;4975996;28;20205;-63
2021/07/10 00:18:26;;;;;;;23.00;16.73;;;16.00;1.00;;;;;;4975801;28;20212;-63
2021/07/10 00:20:53;;;;;;;19.00;14.73;;;15.90;73.40;;;;;;4976019;28;20263;-63
2021/07/10 00:23:20;;;;;;;23.53;16.20;;;15.90;99.90;;;;;;4975897;28;20262;-63
2021/07/10 00:25:47;;;;;;;20.87;16.07;;;15.80;99.90;;;;;;4975814;28;20266;-63
2021/07/10 00:28:13;;;;;;;22.57;18.00;;;15.70;99.90;;;;;;4975809;28;20267;-63
2021/07/10 00:30:41;;;;;;;24.37;18.83;;;15.70;99.90;;;;;;4975803;28;20258;-63
2021/07/10 00:33:08;;;;;;;26.33;19.27;;;15.60;1.00;;;;;;4975599;28;20216;-63
2021/07/10 00:35:36;;;;;;;23.23;19.27;;;15.60;99.90;;;;;;4975590;28;20625;-63
2021/07/10 00:38:03;;;;;;;25.03;18.57;;;15.50;1.00;;;;;;4975729;28;20238;-63
2021/07/10 00:40:29;;;;;;;24.03;19.63;;;15.50;84.10;;;;;;4975644;28;20208;-63
2021/07/10 00:42:56;;;;;;;21.90;18.97;;;15.50;99.90;;;;;;4975684;28;20563;-63
2021/07/10 00:45:23;;;;;;;22.50;18.87;;;15.50;99.90;;;;;;4975097;28;20228;-63
2021/07/10 00:47:51;;;;;;;26.03;19.20;;;15.50;1.00;;;;;;4975517;28;20236;-63
2021/07/10 00:50:20;;;;;;;21.57;17.83;;;15.50;1.00;;;;;;4975675;28;20216;-63
2021/07/10 00:52:47;;;;;;;21.70;18.07;;;15.50;99.90;;;;;;4976393;28;20208;-63
2021/07/10 00:55:15;;;;;;;26.30;19.23;;;15.40;1.00;;;;;;4975974;28;20212;-63
2021/07/10 00:57:43;;;;;;;26.87;19.80;;;15.40;1.00;;;;;;4977031;28;20730;-63
2021/07/10 01:00:12;;;;;;;26.97;18.67;;;15.40;18.80;;;;;;4976364;28;20253;-63
2021/07/10 01:02:41;;;;;;;24.27;18.90;;;15.40;95.70;;;;;;4976562;28;20208;-63
2021/07/10 01:05:12;;;;;;;27.53;20.20;;;15.40;1.00;;;;;;4975477;28;20723;-63
2021/07/10 01:07:39;;;;;;;24.40;19.03;;;15.40;19.10;;;;;;4975388;28;20232;-63
2021/07/10 01:10:07;;;;;;;26.13;19.60;;;15.40;32.60;;;;;;4975081;28;20204;-63
2021/07/10 01:12:35;;;;;;;22.00;18.47;;;15.30;73.40;;;;;;4974790;28;20212;-63
2021/07/10 01:15:01;;;;;;;24.63;19.00;;;15.30;40.40;;;;;;4975040;28;20710;-63
2021/07/10 01:17:28;;;;;;;24.27;18.27;;;15.30;1.00;;;;;;4974891;28;20228;-63
2021/07/10 01:19:58;;;;;;;22.63;18.80;;;15.30;1.00;;;;;;4974966;28;20255;-63
2021/07/10 01:22:27;;;;;;;25.33;19.03;;;15.30;1.00;;;;;;4974822;28;20208;-63
2021/07/10 01:24:54;;;;;;;22.33;18.40;;;15.30;1.00;;;;;;4974612;28;20231;-63
2021/07/10 01:27:21;;;;;;;23.10;18.83;;;15.30;1.00;;;;;;4974750;28;20232;-63
2021/07/10 01:29:48;;;;;;;23.20;18.63;;;15.30;1.00;;;;;;4974951;28;20271;-63
2021/07/10 01:32:17;;;;;;;23.77;18.80;;;15.30;1.00;;;;;;4974609;28;20669;-63
2021/07/10 01:34:45;;;;;;;25.10;18.57;;;15.30;1.00;;;;;;4974401;28;20215;-63
2021/07/10 01:37:12;;;;;;;31.23;19.53;;;15.30;99.90;;;;;;4974520;28;20236;-63
2021/07/10 01:39:40;;;;;;;24.13;18.50;;;15.30;99.90;;;;;;4974352;28;20259;-63
2021/07/10 01:42:07;;;;;;;23.43;18.00;;;15.30;99.90;;;;;;4974695;28;20299;-63
2021/07/10 01:44:34;;;;;;;23.73;18.60;;;15.30;99.90;;;;;;4974357;28;20274;-63
2021/07/10 01:47:00;;;;;;;24.33;19.70;;;15.20;99.90;;;;;;4974551;28;20224;-63
2021/07/10 01:49:27;;;;;;;29.23;20.93;;;15.20;99.90;;;;;;4974336;28;20669;-63
2021/07/10 01:51:54;;;;;;;27.07;20.97;;;15.10;1.00;;;;;;4974330;28;20207;-63
2021/07/10 01:54:21;;;;;;;28.60;21.27;;;15.10;1.00;;;;;;4974062;28;20204;-63
2021/07/10 01:56:49;;;;;;;29.90;22.27;;;15.10;44.70;;;;;;4974150;28;20311;-63
2021/07/10 01:59:16;;;;;;;26.87;20.63;;;15.10;99.90;;;;;;4974463;28;20215;-64
2021/07/10 02:01:46;;;;;;;30.43;20.87;;;15.00;99.90;;;;;;4974086;28;20212;-63
2021/07/10 02:04:15;;;;;;;30.53;21.63;;;15.00;1.00;;;;;;4973929;28;20228;-64
2021/07/10 02:06:42;;;;;;;27.50;22.27;;;15.00;1.00;;;;;;4973791;28;20232;-63
2021/07/10 02:09:09;;;;;;;32.43;22.87;;;14.90;1.00;;;;;;4974515;28;20208;-65
2021/07/10 02:11:36;;;;;;;29.73;23.23;;;14.90;71.00;;;;;;4973480;28;20680;-65
2021/07/10 02:14:05;;;;;;;32.77;23.93;;;14.90;99.90;;;;;;4973505;28;20626;-65
2021/07/10 02:16:32;;;;;;;31.33;23.07;;;14.80;99.90;;;;;;4973711;28;20294;-65
2021/07/10 02:18:58;;;;;;;31.93;23.23;;;14.80;1.00;;;;;;4974236;28;20208;-65
2021/07/10 02:21:25;;;;;;;33.57;24.47;;;14.80;1.00;;;;;;4973872;28;20212;-65
2021/07/10 02:23:52;;;;;;;32.03;23.10;;;14.80;1.00;;;;;;4973569;28;20212;-65
2021/07/10 02:26:19;;;;;;;35.13;23.93;;;14.80;1.00;;;;;;4973731;28;20772;-63
2021/07/10 02:28:45;;;;;;;33.93;23.80;;;14.80;1.00;;;;;;4973799;28;20219;-63
2021/07/10 02:31:13;;;;;;;31.33;23.03;;;14.80;1.00;;;;;;4973964;28;20298;-63
2021/07/10 02:33:40;;;;;;;33.33;23.43;;;14.70;1.00;;;;;;4973279;28;20634;-63
2021/07/10 02:36:07;;;;;;;31.17;22.70;;;14.80;1.00;;;;;;4973407;28;20626;-63
2021/07/10 02:38:33;;;;;;;32.00;22.73;;;14.70;1.00;;;;;;4973359;28;20212;-63
2021/07/10 02:41:00;;;;;;;32.13;22.50;;;14.80;1.00;;;;;;4973375;28;20732;-63
2021/07/10 02:43:27;;;;;;;31.63;22.93;;;14.70;1.00;;;;;;4973333;28;20208;-63
2021/07/10 02:45:53;;;;;;;29.47;21.37;;;14.70;1.00;;;;;;4973346;28;20232;-63
2021/07/10 02:48:21;;;;;;;31.60;20.80;;;14.80;99.90;;;;;;4973217;28;20283;-63
2021/07/10 02:50:48;;;;;;;32.03;19.87;;;14.80;99.90;;;;;;4973436;28;20216;-63
2021/07/10 02:53:15;;;;;;;28.50;21.33;;;14.80;99.90;;;;;;4973491;28;20212;-63
2021/07/10 02:55:41;;;;;;;33.37;21.70;;;14.70;20.30;;;;;;4973159;28;20232;-63
2021/07/10 02:58:08;;;;;;;33.23;22.80;;;14.70;1.00;;;;;;4973189;28;20314;-64
2021/07/10 03:00:35;;;;;;;26.47;20.13;;;14.60;1.00;;;;;;4973326;28;20561;-63
2021/07/10 03:03:01;;;;;;;31.83;22.77;;;14.60;7.00;;;;;;4973046;28;20208;-63
2021/07/10 03:05:31;;;;;;;35.73;25.13;;;14.60;1.00;;;;;;4973097;28;20299;-63
2021/07/10 03:07:58;;;;;;;34.73;25.03;;;14.50;59.00;;;;;;4973339;28;20232;-63
2021/07/10 03:10:27;;;;;;;40.27;27.20;;;14.50;99.90;;;;;;4973190;28;20204;-63
2021/07/10 03:12:54;;;;;;;39.90;26.20;;;14.50;99.90;;;;;;4973349;28;20212;-63
2021/07/10 03:15:21;;;;;;;38.33;26.17;;;14.40;99.90;;;;;;4972937;28;20201;-63
2021/07/10 03:17:48;;;;;;;40.87;25.97;;;14.40;1.00;;;;;;4972882;28;20713;-63
2021/07/10 03:20:16;;;;;;;42.00;27.47;;;14.40;1.00;;;;;;4973029;28;20672;-63
2021/07/10 03:22:44;;;;;;;43.67;28.57;;;14.40;1.00;;;;;;4973316;28;20212;-63
2021/07/10 03:25:12;;;;;;;41.17;28.57;;;14.40;1.00;;;;;;4976687;28;20228;-63
2021/07/10 03:27:40;;;;;;;47.87;30.90;;;14.40;1.00;;;;;;4977118;28;20255;-63
2021/07/10 03:30:09;;;;;;;50.23;32.53;;;14.30;38.10;;;;;;4976850;28;20262;-63
2021/07/10 03:32:38;;;;;;;52.43;31.77;;;14.30;99.90;;;;;;4977130;28;20301;-63
2021/07/10 03:35:06;;;;;;;48.03;32.00;;;14.30;99.90;;;;;;4976753;28;20215;-63
2021/07/10 03:37:33;;;;;;;47.00;30.60;;;14.30;99.90;;;;;;4976686;28;20279;-63
2021/07/10 03:40:01;;;;;;;52.60;30.43;;;14.30;99.90;;;;;;4976757;28;20208;-63
2021/07/10 03:42:27;;;;;;;52.20;32.07;;;14.30;99.90;;;;;;4976579;28;20278;-63
2021/07/10 03:44:54;;;;;;;51.03;33.07;;;14.30;99.90;;;;;;4976261;28;20228;-63
2021/07/10 03:47:21;;;;;;;49.83;31.70;;;14.30;99.90;;;;;;4976667;28;20228;-63
2021/07/10 03:49:47;;;;;;;51.43;30.37;;;14.30;99.90;;;;;;4976557;28;20255;-63
2021/07/10 03:52:14;;;;;;;46.83;29.93;;;14.30;99.90;;;;;;4976592;28;20207;-63
2021/07/10 03:54:40;;;;;;;50.80;30.53;;;14.30;99.90;;;;;;4976120;28;20732;-63
2021/07/10 03:57:08;;;;;;;43.73;30.10;;;14.30;99.90;;;;;;4976096;28;20282;-63
2021/07/10 03:59:35;;;;;;;50.50;29.33;;;14.40;99.90;;;;;;4976481;28;20263;-63
2021/07/10 04:02:02;;;;;;;50.47;30.43;;;14.40;99.90;;;;;;4976469;28;20209;-63
2021/07/10 04:04:28;;;;;;;43.90;28.37;;;14.40;99.90;;;;;;4976012;28;20279;-63
2021/07/10 04:06:56;;;;;;;44.67;29.27;;;14.40;99.90;;;;;;4976167;28;20654;-63
2021/07/10 04:09:23;;;;;;;46.17;28.03;;;14.50;99.90;;;;;;4976256;28;20238;-63
2021/07/10 04:11:49;;;;;;;43.37;28.83;;;14.50;99.90;;;;;;4975798;28;20219;-63
2021/07/10 04:14:17;;;;;;;44.40;26.83;;;14.60;99.90;;;;;;4976217;28;20216;-63
2021/07/10 04:16:44;;;;;;;45.70;28.63;;;14.60;99.90;;;;;;4976046;28;20364;-63
2021/07/10 04:19:10;;;;;;;44.27;27.20;;;14.60;99.90;;;;;;4976095;28;20209;-63
2021/07/10 04:21:37;;;;;;;37.37;27.50;;;14.70;99.90;;;;;;4975958;28;20209;-63
2021/07/10 04:24:04;;;;;;;39.17;27.37;;;14.70;99.90;;;;;;4975757;28;20208;-63
2021/07/10 04:26:31;;;;;;;40.03;25.93;;;14.80;99.90;;;;;;4975561;28;20243;-63
2021/07/10 04:28:58;;;;;;;38.27;25.53;;;14.80;99.90;;;;;;4976098;28;20204;-63
2021/07/10 04:31:26;;;;;;;36.47;25.20;;;14.90;99.90;;;;;;4975983;28;20684;-63
2021/07/10 04:33:52;;;;;;;37.73;25.67;;;14.90;74.10;;;;;;4975614;28;20208;-63
2021/07/10 04:36:19;;;;;;;40.20;25.20;;;15.00;12.60;;;;;;4975011;28;20232;-63
2021/07/10 04:38:46;;;;;;;35.47;24.83;;;15.00;1.00;;;;;;4975629;28;20259;-63
2021/07/10 04:41:12;;;;;;;39.80;26.13;;;15.10;1.00;;;;;;4975777;28;20278;-63
2021/07/10 04:43:39;;;;;;;37.07;26.27;;;15.10;1.00;;;;;;4975524;28;20235;-63
2021/07/10 04:46:06;;;;;;;39.43;26.43;;;15.10;1.00;;;;;;4975518;28;20306;-63
2021/07/10 04:48:34;;;;;;;38.50;26.10;;;15.20;1.00;;;;;;4975498;28;20212;-63
2021/07/10 04:51:00;;;;;;;38.80;26.43;;;15.30;99.90;;;;;;4975366;28;20266;-63
2021/07/10 04:53:27;;;;;;;37.20;24.87;;;15.30;99.90;;;;;;4975036;28;20340;-63
2021/07/10 04:55:54;;;;;;;37.57;25.47;;;15.40;99.90;;;;;;4975550;28;20216;-63
2021/07/10 04:58:20;;;;;;;37.67;26.10;;;15.40;99.90;;;;;;4975198;28;20262;-63
2021/07/10 05:00:49;;;;;;;37.07;26.23;;;15.50;15.60;;;;;;4975463;28;20212;-63
2021/07/10 05:03:15;;;;;;;37.73;27.50;;;15.50;1.00;;;;;;4975638;28;20208;-63
2021/07/10 05:05:43;;;;;;;39.80;27.97;;;15.50;99.90;;;;;;4974992;28;20228;-63
2021/07/10 05:08:10;;;;;;;33.53;24.40;;;15.50;1.00;;;;;;4975112;28;20760;-63
2021/07/10 05:10:37;;;;;;;40.33;25.43;;;15.60;99.90;;;;;;4975229;28;20235;-63
2021/07/10 05:13:05;;;;;;;36.20;24.63;;;15.60;1.00;;;;;;4975146;28;20215;-63
2021/07/10 05:15:31;;;;;;;34.80;24.13;;;15.70;99.90;;;;;;4974826;28;20700;-65
2021/07/10 05:17:58;;;;;;;35.57;24.67;;;15.80;11.90;;;;;;4974939;28;20272;-65
2021/07/10 05:20:25;;;;;;;32.10;23.73;;;15.80;99.90;;;;;;4974845;28;20212;-65
2021/07/10 05:22:53;;;;;;;33.07;23.40;;;15.90;1.00;;;;;;4975114;28;20212;-65
2021/07/10 05:25:20;;;;;;;31.90;23.37;;;16.00;99.90;;;;;;4974837;28;20283;-65
2021/07/10 05:27:46;;;;;;;28.90;21.63;;;16.00;99.90;;;;;;4974905;28;20229;-65
2021/07/10 05:30:15;;;;;;;30.77;21.03;;;16.00;1.00;;;;;;4974903;28;20243;-63
2021/07/10 05:32:42;;;;;;;27.60;20.33;;;16.10;1.00;;;;;;4974612;28;20360;-63
2021/07/10 05:35:10;;;;;;;29.67;21.13;;;16.20;99.90;;;;;;4974482;28;20263;-63
2021/07/10 05:37:37;;;;;;;26.67;20.33;;;16.30;99.90;;;;;;4974789;28;20232;-63
2021/07/10 05:40:07;;;;;;;27.73;19.60;;;16.30;1.00;;;;;;4974619;28;20212;-63
2021/07/10 05:42:34;;;;;;;30.43;20.13;;;16.40;99.90;;;;;;4974673;28;20247;-63
2021/07/10 05:45:01;;;;;;;26.10;18.70;;;16.50;99.90;;;;;;4974258;28;20279;-65
2021/07/10 05:47:28;;;;;;;25.57;18.47;;;16.60;1.00;;;;;;4973313;28;20303;-65
2021/07/10 05:49:54;;;;;;;24.37;18.87;;;16.60;1.00;;;;;;4974262;28;20216;-65
2021/07/10 05:52:21;;;;;;;24.33;17.77;;;16.70;1.00;;;;;;4974459;28;20241;-63
2021/07/10 05:54:47;;;;;;;26.27;17.90;;;16.80;1.00;;;;;;4974115;28;20287;-63
2021/07/10 05:57:15;;;;;;;25.10;16.83;;;17.00;99.90;;;;;;4974026;28;20236;-63
2021/07/10 05:59:42;;;;;;;20.87;15.90;;;17.20;99.90;;;;;;4974057;28;20677;-63
2021/07/10 06:02:09;;;;;;;28.80;15.50;;;17.40;99.90;;;;;;4974323;28;20259;-64
2021/07/10 06:04:36;;;;;;;17.67;14.43;;;17.60;99.90;;;;;;4973736;28;20665;-63
2021/07/10 06:07:03;;;;;;;19.50;14.50;;;17.80;1.00;;;;;;4973839;28;20772;-63
2021/07/10 06:09:30;;;;;;;18.83;14.80;;;18.10;1.00;;;;;;4973956;28;20218;-63
2021/07/10 06:11:57;;;;;;;18.47;13.57;;;18.20;99.90;;;;;;4974066;28;20212;-63
2021/07/10 06:14:25;;;;;;;18.23;13.53;;;18.30;99.90;;;;;;4973698;28;20279;-64
2021/07/10 06:16:51;;;;;;;18.10;13.20;;;18.40;1.00;;;;;;4973789;28;20228;-64
2021/07/10 06:19:18;;;;;;;15.70;13.63;;;18.40;1.00;;;;;;4973810;28;20736;-64
2021/07/10 06:21:45;;;;;;;20.20;13.90;;;18.50;1.00;;;;;;4974107;28;20634;-64
2021/07/10 06:24:11;;;;;;;17.73;13.30;;;18.60;1.00;;;;;;4974215;28;20634;-64
2021/07/10 06:26:38;;;;;;;19.23;13.63;;;18.60;1.00;;;;;;4973710;28;20236;-64
2021/07/10 06:29:05;;;;;;;21.30;12.90;;;18.60;99.90;;;;;;4973979;28;20247;-64
2021/07/10 06:31:33;;;;;;;18.10;13.37;;;18.60;99.90;;;;;;4974795;28;20212;-64
2021/07/10 06:34:00;;;;;;;17.00;12.77;;;18.60;99.90;;;;;;4974623;28;20255;-64
2021/07/10 06:36:27;;;;;;;18.40;13.30;;;18.70;99.90;;;;;;4973742;28;20216;-64
2021/07/10 06:38:54;;;;;;;18.47;12.90;;;18.70;99.90;;;;;;4973651;28;20212;-64
2021/07/10 06:41:21;;;;;;;18.70;13.17;;;18.60;99.90;;;;;;4973566;28;20255;-64
2021/07/10 06:43:48;;;;;;;18.07;13.27;;;18.70;99.90;;;;;;4973257;28;20260;-64
2021/07/10 06:46:14;;;;;;;18.07;12.80;;;18.60;99.90;;;;;;4973592;28;20232;-64
2021/07/10 06:48:42;;;;;;;17.70;13.23;;;18.70;99.90;;;;;;4971133;28;20287;-64
2021/07/10 06:51:09;;;;;;;19.37;12.97;;;18.80;1.00;;;;;;4973065;28;20216;-66
2021/07/10 06:53:37;;;;;;;15.33;11.37;;;18.90;1.00;;;;;;4973305;28;20259;-65
2021/07/10 06:56:04;;;;;;;18.73;13.07;;;18.90;1.00;;;;;;4973259;28;20240;-65
2021/07/10 06:58:31;;;;;;;15.27;12.20;;;19.10;99.90;;;;;;4972716;28;20655;-65
2021/07/10 07:00:57;;;;;;;17.20;12.50;;;19.20;99.90;;;;;;4974008;28;20629;-66
2021/07/10 07:03:24;;;;;;;16.00;12.30;;;19.30;99.90;;;;;;4973369;28;20634;-65
2021/07/10 07:05:52;;;;;;;13.90;11.70;;;19.40;99.90;;;;;;4973127;28;20288;-66
2021/07/10 07:08:18;;;;;;;16.10;10.90;;;19.40;99.90;;;;;;4973450;28;20571;-66
2021/07/10 07:10:45;;;;;;;15.60;10.97;;;19.50;99.90;;;;;;4972914;28;20208;-66
2021/07/10 07:13:12;;;;;;;13.93;11.10;;;19.60;99.90;;;;;;4973340;28;20218;-67
2021/07/10 07:15:39;;;;;;;15.37;11.40;;;19.80;1.10;;;;;;4973322;28;20266;-67
2021/07/10 07:18:06;;;;;;;17.90;10.93;;;19.80;96.00;;;;;;4973155;28;20311;-66
2021/07/10 07:20:33;;;;;;;16.57;10.20;;;19.90;14.80;;;;;;4973002;28;20282;-65
2021/07/10 07:23:01;;;;;;;15.43;10.20;;;20.00;43.80;;;;;;4973149;28;20231;-66
2021/07/10 07:25:30;;;;;;;12.17;9.83;;;20.10;1.00;;;;;;4972283;28;20653;-66
2021/07/10 07:27:56;;;;;;;14.30;9.60;;;20.20;1.00;;;;;;4973244;28;20230;-66
2021/07/10 07:30:23;;;;;;;12.33;9.70;;;20.30;1.00;;;;;;4973117;28;20209;-67
2021/07/10 07:32:50;;;;;;;14.03;9.70;;;20.20;1.00;;;;;;4972977;28;20356;-67
2021/07/10 07:35:19;;;;;;;13.30;9.73;;;20.20;1.00;;;;;;4972743;28;20208;-65
2021/07/10 07:37:46;;;;;;;17.23;9.27;;;20.20;1.00;;;;;;4972794;28;20294;-66
2021/07/10 07:40:16;;;;;;;14.40;10.80;;;20.20;1.00;;;;;;4972598;28;20275;-67
2021/07/10 07:42:44;;;;;;;13.60;10.43;;;20.30;1.00;;;;;;4972741;28;20722;-66
2021/07/10 07:45:11;;;;;;;14.33;11.67;;;20.30;1.00;;;;;;4972888;28;20259;-66
2021/07/10 07:47:39;;;;;;;20.67;13.33;;;20.30;1.00;;;;;;4972622;28;20232;-66
2021/07/10 07:50:08;;;;;;;16.87;12.73;;;20.30;1.00;;;;;;4972680;28;20662;-67
2021/07/10 07:52:35;;;;;;;15.70;12.10;;;20.30;1.00;;;;;;4972456;28;20212;-68
2021/07/10 07:55:02;;;;;;;15.67;11.63;;;20.30;1.00;;;;;;4972666;28;20291;-65
2021/07/10 07:57:30;;;;;;;14.20;11.87;;;20.40;1.00;;;;;;4972623;28;20288;-67
2021/07/10 07:59:57;;;;;;;15.90;11.80;;;20.50;1.00;;;;;;4972617;28;20208;-65
2021/07/10 08:02:24;;;;;;;14.70;10.50;;;20.60;1.00;;;;;;4972695;28;20208;-65
2021/07/10 08:04:50;;;;;;;14.50;10.73;;;20.80;1.00;;;;;;4972306;28;20208;-65
2021/07/10 08:07:17;;;;;;;15.27;11.77;;;21.00;1.00;;;;;;4972250;28;20228;-65
2021/07/10 08:09:44;;;;;;;13.70;9.80;;;21.20;1.00;;;;;;4972523;28;20208;-65
2021/07/10 08:12:12;;;;;;;11.67;8.97;;;21.50;1.00;;;;;;4975924;28;20216;-65
2021/07/10 08:14:40;;;;;;;11.60;7.97;;;21.70;1.00;;;;;;4975974;28;20210;-65
2021/07/10 08:17:07;;;;;;;11.77;7.93;;;21.70;1.00;;;;;;4975844;28;20656;-65
2021/07/10 08:19:33;;;;;;;11.87;9.17;;;21.70;1.00;;;;;;4975890;28;20205;-65
2021/07/10 08:22:00;;;;;;;11.67;8.10;;;21.80;99.90;;;;;;4976090;28;20209;-66
2021/07/10 08:24:26;;;;;;;13.43;8.77;;;21.80;99.90;;;;;;4975828;28;20633;-67
2021/07/10 08:26:53;;;;;;;11.63;7.97;;;21.80;99.90;;;;;;4975748;28;20242;-68
2021/07/10 08:29:20;;;;;;;9.33;6.77;;;21.90;99.90;;;;;;4975973;28;20259;-65
2021/07/10 08:31:48;;;;;;;10.47;6.80;;;21.80;99.90;;;;;;4972643;28;20736;-66
2021/07/10 08:34:14;;;;;;;8.80;6.80;;;21.60;99.90;;;;;;4975444;28;20596;-66
2021/07/10 08:36:41;;;;;;;11.80;8.03;;;21.50;99.90;;;;;;4975959;28;20275;-66
2021/07/10 08:39:08;;;;;;;10.93;7.50;;;21.60;99.90;;;;;;4975690;28;20209;-66
2021/07/10 08:41:37;;;;;;;12.20;7.43;;;21.60;99.90;;;;;;4975114;28;20263;-65
2021/07/10 08:44:05;;;;;;;10.27;7.10;;;21.60;99.90;;;;;;4975017;28;20628;-63
2021/07/10 08:46:31;;;;;;;10.13;6.90;;;21.70;99.90;;;;;;4975171;28;20240;-63
2021/07/10 08:48:59;;;;;;;12.20;6.80;;;22.00;99.90;;;;;;4975059;28;20208;-63
2021/07/10 08:51:26;;;;;;;9.40;6.63;;;22.10;99.90;;;;;;4975197;28;20209;-65
2021/07/10 08:53:53;;;;;;;8.60;6.63;;;22.20;99.90;;;;;;4974945;28;20208;-66
2021/07/10 08:56:20;;;;;;;10.60;7.50;;;22.10;99.90;;;;;;4974970;28;20364;-65
2021/07/10 08:58:46;;;;;;;11.00;7.27;;;22.00;99.90;;;;;;4974711;28;20641;-64
2021/07/10 09:01:13;;;;;;;11.80;7.53;;;21.90;99.90;;;;;;4974538;28;20208;-65
2021/07/10 09:03:40;;;;;;;15.43;8.13;;;21.90;99.90;;;;;;4974624;28;20219;-65
2021/07/10 09:06:09;;;;;;;10.60;7.90;;;21.90;99.90;;;;;;4974521;28;20759;-66
2021/07/10 09:08:36;;;;;;;10.53;8.00;;;21.80;99.90;;;;;;4974756;28;20208;-65
2021/07/10 09:11:05;;;;;;;18.97;7.70;;;21.70;99.90;;;;;;4974460;28;20209;-65
2021/07/10 09:13:35;;;;;;;11.07;7.67;;;21.80;99.90;;;;;;4974261;28;20204;-65
2021/07/10 09:16:08;;;;;;;10.80;7.40;;;21.90;99.90;;;;;;4974547;28;20235;-65
2021/07/10 09:18:42;;;;;;;10.80;7.00;;;22.10;99.90;;;;;;4974688;28;20641;-64
2021/07/10 09:21:12;;;;;;;9.27;6.83;;;22.10;99.90;;;;;;4974251;28;20213;-65
2021/07/10 09:23:42;;;;;;;11.33;7.17;;;22.20;99.90;;;;;;4974062;28;20620;-65
2021/07/10 09:26:22;;;;;;;9.73;7.00;;;22.50;99.90;;;;;;4974201;28;20213;-66
2021/07/10 09:29:06;;;;;;;8.93;7.40;;;22.50;99.90;;;;;;4974240;28;20214;-65
2021/07/10 09:31:36;;;;;;;9.37;7.47;;;22.40;99.90;;;;;;4974105;28;20205;-65
2021/07/10 09:34:06;;;;;;;11.80;8.03;;;22.60;99.90;;;;;;4973891;28;20212;-64
2021/07/10 09:36:35;;;;;;;9.83;7.93;;;22.70;99.90;;;;;;4974134;28;20720;-66
2021/07/10 09:39:02;;;;;;;9.67;7.63;;;22.90;99.90;;;;;;4974088;28;20208;-65
2021/07/10 09:41:31;;;;;;;10.03;7.83;;;22.80;99.90;;;;;;4974265;28;20208;-65
2021/07/10 09:44:10;;;;;;;11.13;7.80;;;22.70;99.90;;;;;;4974049;28;20220;-66
2021/07/10 09:46:38;;;;;;;12.53;7.87;;;22.90;99.90;;;;;;4974078;28;20244;-66
2021/07/10 09:49:29;;;;;;;10.77;8.27;;;23.10;99.90;;;;;;4973886;28;20677;-66
2021/07/10 09:52:10;;;;;;;12.13;8.53;;;23.00;99.90;;;;;;4973534;28;20216;-65
2021/07/10 09:54:39;;;;;;;12.70;7.93;;;22.90;99.90;;;;;;4973801;28;20207;-65
2021/07/10 09:57:09;;;;;;;11.37;7.70;;;23.00;99.90;;;;;;4973471;28;20732;-64
2021/07/10 09:59:38;;;;;;;11.87;7.73;;;23.10;99.90;;;;;;4973654;28;20251;-65
2021/07/10 10:02:14;;;;;;;9.43;8.03;;;23.10;99.90;;;;;;4973325;28;20204;-65
2021/07/10 10:04:40;;;;;;;9.20;8.20;;;23.10;99.90;;;;;;4973902;28;20258;-64
2021/07/10 10:07:14;;;;;;;14.27;8.80;;;22.70;99.90;;;;;;4973565;28;20239;-64
2021/07/10 10:09:42;;;;;;;13.73;8.43;;;22.80;99.90;;;;;;4973657;28;20275;-65
2021/07/10 10:12:12;;;;;;;11.33;8.70;;;23.00;99.90;;;;;;4972851;28;20219;-65
2021/07/10 10:14:44;;;;;;;11.80;8.13;;;23.10;99.90;;;;;;4972560;28;20200;-65
2021/07/10 10:17:11;;;;;;;12.37;8.27;;;23.30;99.90;;;;;;4973597;28;20231;-65
2021/07/10 10:19:38;;;;;;;10.73;8.40;;;23.20;99.90;;;;;;4973691;28;20266;-65
2021/07/10 10:22:08;;;;;;;12.10;8.93;;;23.30;99.90;;;;;;4973095;28;20291;-64
2021/07/10 10:24:38;;;;;;;12.73;8.70;;;23.30;99.90;;;;;;4973077;28;20748;-64
2021/07/10 10:27:06;;;;;;;9.40;8.10;;;23.10;99.90;;;;;;4973751;28;20282;-65
2021/07/10 10:29:34;;;;;;;13.23;8.10;;;23.10;99.90;;;;;;4973929;28;20271;-65
2021/07/10 10:32:02;;;;;;;11.57;7.87;;;23.20;99.90;;;;;;4973065;28;20744;-65
2021/07/10 10:34:29;;;;;;;12.23;8.10;;;23.20;99.90;;;;;;4973280;28;20216;-66
2021/07/10 10:36:57;;;;;;;9.87;8.20;;;23.10;99.90;;;;;;4974055;28;20280;-66
2021/07/10 10:39:26;;;;;;;13.40;8.23;;;23.10;99.90;;;;;;4974557;28;20216;-65
2021/07/10 10:41:57;;;;;;;10.70;8.60;;;23.10;99.90;;;;;;4973253;28;20204;-64
2021/07/10 10:44:26;;;;;;;10.57;8.40;;;23.10;99.90;;;;;;4973232;28;20638;-66
2021/07/10 10:46:57;;;;;;;10.67;8.10;;;23.20;99.90;;;;;;4972872;28;20232;-65
2021/07/10 10:49:42;;;;;;;9.87;8.33;;;23.30;99.90;;;;;;4973161;28;20263;-65
2021/07/10 10:52:25;;;;;;;10.87;8.37;;;23.20;99.90;;;;;;4972741;28;20212;-64
2021/07/10 10:54:53;;;;;;;10.57;8.73;;;23.30;99.90;;;;;;4973057;28;20212;-65
2021/07/10 10:57:36;;;;;;;13.60;8.47;;;23.20;99.90;;;;;;4972589;28;20232;-64
2021/07/10 11:00:08;;;;;;;10.43;8.13;;;23.10;99.90;;;;;;4972871;28;20208;-64
2021/07/10 11:02:54;;;;;;;10.80;9.13;;;23.10;99.90;;;;;;4972603;28;20208;-65
2021/07/10 11:05:47;;;;;;;10.70;7.60;;;23.10;99.90;;;;;;4972797;28;20212;-65
2021/07/10 11:08:42;;;;;;;12.07;8.50;;;23.20;99.90;;;;;;4972614;28;20315;-64
2021/07/10 11:11:35;;;;;;;10.13;8.10;;;23.30;99.90;;;;;;4965545;28;20212;-65
2021/07/10 11:14:29;;;;;;;10.27;7.30;;;23.50;99.90;;;;;;4972507;28;20732;-65
2021/07/10 11:17:07;;;;;;;9.40;7.60;;;23.70;99.90;;;;;;4972599;28;20238;-63
2021/07/10 11:19:55;;;;;;;12.43;7.47;;;23.30;99.90;;;;;;4972550;28;20204;-65
2021/07/10 11:23:02;;;;;;;9.37;7.20;;;23.50;99.90;;;;;;4972144;28;20208;-65
2021/07/10 11:26:06;;;;;;;8.60;6.37;;;23.50;99.90;;;;;;4972631;28;20209;-65
2021/07/10 11:28:57;;;;;;;7.83;6.30;;;23.50;99.90;;;;;;4972705;28;20239;-65
2021/07/10 11:31:34;;;;;;;9.53;7.07;;;23.60;99.90;;;;;;4972237;28;20240;-64
2021/07/10 11:34:15;;;;;;;9.43;7.20;;;23.80;99.90;;;;;;4972138;28;20292;-65
2021/07/10 11:37:00;;;;;;;10.43;7.03;;;24.10;99.90;;;;;;4972630;28;20260;-65
2021/07/10 11:39:49;;;;;;;10.67;7.60;;;24.20;99.90;;;;;;4972673;28;20589;-66
2021/07/10 11:42:44;;;;;;;9.00;6.93;;;24.10;99.90;;;;;;4972164;28;20216;-66
2021/07/10 11:45:24;;;;;;;10.80;7.07;;;23.90;99.90;;;;;;4972658;28;20678;-66
2021/07/10 11:47:55;;;;;;;11.43;6.80;;;23.80;99.90;;;;;;4976173;28;20658;-65
2021/07/10 11:50:24;;;;;;;9.93;7.27;;;23.90;99.90;;;;;;4976487;28;20223;-66
2021/07/10 11:53:04;;;;;;;7.63;6.47;;;23.90;99.90;;;;;;4975498;28;20717;-65
2021/07/10 11:55:34;;;;;;;8.63;6.40;;;23.80;99.90;;;;;;4976029;28;20208;-66
2021/07/10 11:58:05;;;;;;;9.87;6.80;;;23.90;99.90;;;;;;4975857;28;20615;-65
2021/07/10 12:00:33;;;;;;;7.83;6.47;;;24.00;99.90;;;;;;4975601;28;20214;-65
2021/07/10 12:03:01;;;;;;;11.20;7.30;;;24.00;99.90;;;;;;4975341;28;20208;-65
2021/07/10 12:05:30;;;;;;;9.37;6.83;;;24.10;99.90;;;;;;4975551;28;20277;-65
2021/07/10 12:08:00;;;;;;;9.17;6.70;;;24.00;99.90;;;;;;4975878;28;20228;-65
2021/07/10 12:10:29;;;;;;;10.17;6.83;;;24.20;99.90;;;;;;4975799;28;20667;-65
2021/07/10 12:12:58;;;;;;;9.00;6.30;;;24.60;99.90;;;;;;4974844;28;20211;-65
2021/07/10 12:15:27;;;;;;;8.77;6.00;;;24.90;99.90;;;;;;4975628;28;20216;-65
2021/07/10 12:17:56;;;;;;;13.23;6.33;;;25.20;99.90;;;;;;4975916;28;20284;-65
2021/07/10 12:20:27;;;;;;;10.87;7.13;;;25.00;99.90;;;;;;4975825;28;20632;-64
2021/07/10 12:22:56;;;;;;;10.50;6.07;;;25.00;99.90;;;;;;4974728;28;20340;-63
2021/07/10 12:25:26;;;;;;;8.87;7.27;;;25.00;99.90;;;;;;4974684;28;20232;-63
2021/07/10 12:27:59;;;;;;;10.73;7.10;;;24.70;99.90;;;;;;4974600;28;20232;-63
2021/07/10 12:30:44;;;;;;;7.93;6.13;;;24.20;99.90;;;;;;4975710;28;20209;-63
2021/07/10 12:33:27;;;;;;;6.03;5.20;;;23.90;99.90;;;;;;4974392;28;20215;-64
2021/07/10 12:36:03;;;;;;;5.77;4.63;;;24.10;99.90;;;;;;4973870;28;20208;-65
2021/07/10 12:38:30;;;;;;;5.07;4.27;;;24.30;99.90;;;;;;4975645;28;20629;-63
2021/07/10 12:41:14;;;;;;;8.00;5.57;;;24.50;99.90;;;;;;4974960;28;20267;-64
2021/07/10 12:43:41;;;;;;;6.03;4.50;;;24.50;99.90;;;;;;4974578;28;20629;-66
2021/07/10 12:46:08;;;;;;;7.23;4.43;;;24.70;99.90;;;;;;4975058;28;20263;-64